createdAt,value
2022-12-24T00:00:25.328Z,2.55
2022-12-24T00:02:52.095Z,1.52
2022-12-24T00:05:18.831Z,1.58
2022-12-24T00:07:45.507Z,1.40
2022-12-24T00:10:12.323Z,1.65
2022-12-24T00:12:39.013Z,1.50
2022-12-24T00:15:08.158Z,2.38
2022-12-24T00:17:34.851Z,1.27
2022-12-24T00:20:01.533Z,1.80
2022-12-24T00:22:28.184Z,1.42
2022-12-24T00:24:54.898Z,1.58
2022-12-24T00:31:10.589Z,2.00
2022-12-24T00:33:55.549Z,1.63
2022-12-24T00:43:57.168Z,1.35
2022-12-24T00:46:25.311Z,2.50
2022-12-24T00:48:52.806Z,3.35
2022-12-24T00:51:20.499Z,1.70
2022-12-24T00:53:47.994Z,1.63
2022-12-24T01:00:32.643Z,1.83
2022-12-24T01:02:59.592Z,2.15
2022-12-24T01:05:26.446Z,1.27
2022-12-24T01:12:05.310Z,1.17
2022-12-24T01:14:52.389Z,2.25
2022-12-24T01:21:40.059Z,1.30
2022-12-24T01:25:23.485Z,1.70
2022-12-24T01:36:02.601Z,1.88
2022-12-24T01:42:41.216Z,1.33
2022-12-24T01:45:45.697Z,1.63
2022-12-24T01:48:33.482Z,1.30
2022-12-24T01:51:17.067Z,1.33
2022-12-24T01:53:48.247Z,1.35
2022-12-24T01:56:16.038Z,1.90
2022-12-24T01:58:48.611Z,1.73
2022-12-24T02:01:15.671Z,2.22
2022-12-24T02:03:42.568Z,1.38
2022-12-24T02:06:12.346Z,1.75
2022-12-24T02:08:40.264Z,1.65
2022-12-24T02:11:24.963Z,3.50
2022-12-24T02:13:55.751Z,1.77
2022-12-24T02:20:35.844Z,1.90
2022-12-24T02:23:27.225Z,1.50
2022-12-24T02:25:56.645Z,1.80
2022-12-24T02:29:10.537Z,1.98
2022-12-24T02:35:54.326Z,1.40
2022-12-24T02:51:07.435Z,1.65
2022-12-24T02:53:54.445Z,1.58
2022-12-24T02:57:09.043Z,1.92
2022-12-24T04:58:47.064Z,3.90
2022-12-24T05:01:34.443Z,3.67
2022-12-24T05:04:01.628Z,3.85
2022-12-24T05:06:32.691Z,3.60
2022-12-24T05:08:59.771Z,3.00
2022-12-24T05:11:26.708Z,4.72
2022-12-24T05:13:53.447Z,3.80
2022-12-24T05:16:22.355Z,4.00
2022-12-24T05:18:49.237Z,3.90
2022-12-24T05:21:19.324Z,3.20
2022-12-24T05:24:04.996Z,3.08
2022-12-24T05:26:48.679Z,3.85
2022-12-24T05:29:15.652Z,5.70
2022-12-24T05:31:43.836Z,3.08
2022-12-24T05:34:11.942Z,3.38
2022-12-24T05:36:38.956Z,4.05
2022-12-24T05:39:11.375Z,3.10
2022-12-24T05:45:39.746Z,5.82
2022-12-24T05:48:08.185Z,6.72
2022-12-24T05:50:36.345Z,3.92
2022-12-24T05:53:03.014Z,4.80
2022-12-24T05:55:29.693Z,4.13
2022-12-24T05:57:56.379Z,3.55
2022-12-24T06:00:23.129Z,3.30
2022-12-24T06:02:50.947Z,3.45
2022-12-24T06:05:17.755Z,4.07
2022-12-24T06:07:45.494Z,5.85
2022-12-24T06:10:12.212Z,5.22
2022-12-24T06:12:39.082Z,4.10
2022-12-24T06:15:06.488Z,3.42
2022-12-24T06:17:33.643Z,3.25
2022-12-24T06:20:00.379Z,4.00
2022-12-24T06:22:27.039Z,3.05
2022-12-24T06:24:53.711Z,4.60
2022-12-24T06:27:20.392Z,2.72
2022-12-24T06:29:47.022Z,3.90
2022-12-24T06:32:13.768Z,3.03
2022-12-24T06:34:40.368Z,3.38
2022-12-24T06:37:07.161Z,3.22
2022-12-24T06:39:33.789Z,4.07
2022-12-24T06:42:01.051Z,4.55
2022-12-24T06:44:27.783Z,3.58
2022-12-24T06:46:54.482Z,3.53
2022-12-24T06:49:21.215Z,3.47
2022-12-24T06:51:47.872Z,3.30
2022-12-24T06:54:14.443Z,2.95
2022-12-24T06:56:41.176Z,3.25
2022-12-24T06:59:07.835Z,3.60
2022-12-24T07:01:34.667Z,2.75
2022-12-24T07:04:01.404Z,2.92
2022-12-24T07:06:48.404Z,2.90
2022-12-24T07:09:35.393Z,3.47
2022-12-24T07:12:22.404Z,3.67
2022-12-24T07:15:10.810Z,4.15
2022-12-24T07:17:57.808Z,3.90
2022-12-24T07:20:44.757Z,2.97
2022-12-24T07:23:31.789Z,3.50
2022-12-24T07:26:18.729Z,2.50
2022-12-24T07:29:05.686Z,3.20
2022-12-24T07:31:52.726Z,3.03
2022-12-24T07:34:39.860Z,3.83
2022-12-24T07:37:26.964Z,3.33
2022-12-24T07:40:13.899Z,4.40
2022-12-24T07:43:00.952Z,3.20
2022-12-24T07:49:48.585Z,2.90
2022-12-24T07:52:35.557Z,3.25
2022-12-24T07:55:22.570Z,2.45
2022-12-24T07:58:08.051Z,2.72
2022-12-24T08:00:34.876Z,3.72
2022-12-24T08:03:01.578Z,3.53
2022-12-24T08:05:28.367Z,3.47
2022-12-24T08:07:55.513Z,2.67
2022-12-24T08:10:22.180Z,4.38
2022-12-24T08:12:48.862Z,3.03
2022-12-24T08:15:15.895Z,2.72
2022-12-24T08:17:42.608Z,3.58
2022-12-24T08:20:29.643Z,3.08
2022-12-24T08:23:16.761Z,3.45
2022-12-24T08:31:14.247Z,2.40
2022-12-24T08:34:01.229Z,2.72
2022-12-24T08:41:10.763Z,2.20
2022-12-24T08:43:37.478Z,2.78
2022-12-24T08:46:06.773Z,2.90
2022-12-24T08:56:14.911Z,1.30
2022-12-24T08:58:41.768Z,1.35
2022-12-24T09:08:39.628Z,2.83
2022-12-24T09:15:37.616Z,1.27
2022-12-24T09:26:07.112Z,2.50
2022-12-24T09:28:33.820Z,1.88
2022-12-24T09:39:47.119Z,1.92
2022-12-24T09:50:54.473Z,3.03
2022-12-24T09:54:13.175Z,2.38
2022-12-24T09:56:44.310Z,2.03
2022-12-24T09:59:17.654Z,2.25
2022-12-24T10:01:44.524Z,2.72
2022-12-24T10:04:16.973Z,3.35
2022-12-24T10:06:53.991Z,2.38
2022-12-24T10:09:36.024Z,3.05
2022-12-24T10:12:33.531Z,2.08
2022-12-24T10:19:55.536Z,1.85
2022-12-24T10:30:17.518Z,1.88
2022-12-24T10:36:28.951Z,1.83
2022-12-24T10:39:01.915Z,2.63
2022-12-24T10:41:36.818Z,3.15
2022-12-24T10:44:05.737Z,5.15
2022-12-24T10:50:23.095Z,3.80
2022-12-24T10:56:30.764Z,4.95
2022-12-24T10:58:57.465Z,2.67
2022-12-24T11:02:06.709Z,3.45
2022-12-24T11:05:21.545Z,3.90
2022-12-24T11:08:12.879Z,3.65
2022-12-24T11:10:45.484Z,4.25
2022-12-24T11:21:00.882Z,5.47
2022-12-24T11:23:57.749Z,4.20
2022-12-24T11:26:27.094Z,3.92
2022-12-24T11:29:20.756Z,3.90
2022-12-24T11:31:49.253Z,3.50
2022-12-24T11:34:23.002Z,4.35
2022-12-24T11:36:51.618Z,6.53
2022-12-24T11:39:24.037Z,4.47
2022-12-24T11:41:51.517Z,4.55
2022-12-24T11:52:08.918Z,4.30
2022-12-24T11:54:49.377Z,3.50
2022-12-24T11:58:03.449Z,3.63
2022-12-24T12:00:30.505Z,5.32
2022-12-24T12:03:01.971Z,4.53
2022-12-24T12:05:41.158Z,3.97
2022-12-24T12:08:30.227Z,5.88
2022-12-24T12:11:41.561Z,5.57
2022-12-24T12:14:51.773Z,3.55
2022-12-24T12:17:40.120Z,4.53
2022-12-24T12:20:50.722Z,6.53
2022-12-24T12:23:46.120Z,3.85
2022-12-24T12:26:30.468Z,5.50
2022-12-24T12:29:33.193Z,4.35
2022-12-24T12:32:37.170Z,5.22
2022-12-24T12:35:37.666Z,5.65
2022-12-24T12:38:36.998Z,4.88
2022-12-24T12:45:28.821Z,4.53
2022-12-24T12:56:17.466Z,5.53
2022-12-24T12:59:08.310Z,5.35
2022-12-24T13:05:56.393Z,5.57
2022-12-24T13:08:41.012Z,5.45
2022-12-24T13:11:34.080Z,7.47
2022-12-24T13:14:23.989Z,5.50
2022-12-24T13:17:27.802Z,2.75
2022-12-24T13:20:16.151Z,2.28
2022-12-24T13:23:09.012Z,1.85
2022-12-24T13:25:41.628Z,1.63
2022-12-24T13:28:42.718Z,1.48
2022-12-24T13:31:30.133Z,1.77
2022-12-24T13:34:02.022Z,3.58
2022-12-24T13:37:02.459Z,2.67
2022-12-24T13:39:29.095Z,0.80
2022-12-24T13:41:55.732Z,2.08
2022-12-24T13:44:35.056Z,1.30
2022-12-24T13:47:32.362Z,1.05
2022-12-24T13:50:20.976Z,1.00
2022-12-24T13:52:53.151Z,1.00
2022-12-24T13:55:19.937Z,1.27
2022-12-24T13:58:01.824Z,1.55
2022-12-24T14:00:34.525Z,1.80
2022-12-24T14:03:33.450Z,1.95
2022-12-24T14:06:09.191Z,2.65
2022-12-24T14:08:47.060Z,3.22
2022-12-24T14:12:01.703Z,2.03
2022-12-24T14:14:34.297Z,2.20
2022-12-24T14:17:14.679Z,2.17
2022-12-24T14:19:45.092Z,3.10
2022-12-24T14:22:11.678Z,2.38
2022-12-24T14:24:43.297Z,2.05
2022-12-24T14:27:18.661Z,2.10
2022-12-24T14:30:17.884Z,2.05
2022-12-24T14:32:45.255Z,2.22
2022-12-24T14:35:18.662Z,1.88
2022-12-24T14:37:57.162Z,2.10
2022-12-24T14:40:30.009Z,2.97
2022-12-24T14:43:30.720Z,2.45
2022-12-24T14:46:22.496Z,2.95
2022-12-24T14:49:07.192Z,7.18
2022-12-24T14:51:48.235Z,4.28
2022-12-24T14:54:20.578Z,5.30
2022-12-24T14:59:20.709Z,3.90
2022-12-24T15:01:47.826Z,2.10
2022-12-24T15:04:18.461Z,1.95
2022-12-24T15:06:52.801Z,1.88
2022-12-24T15:09:23.370Z,3.03
2022-12-24T15:11:53.781Z,2.50
2022-12-24T15:14:23.405Z,2.50
2022-12-24T15:16:55.251Z,8.98
2022-12-24T15:19:28.536Z,16.63
2022-12-24T15:21:55.896Z,14.40
2022-12-24T15:25:25.488Z,16.10
2022-12-24T15:27:52.242Z,19.38
2022-12-24T15:30:22.643Z,14.40
2022-12-24T15:32:54.705Z,11.57
2022-12-24T15:35:30.867Z,8.68
2022-12-24T15:38:02.939Z,4.40
2022-12-24T15:40:30.091Z,3.35
2022-12-24T15:42:56.889Z,5.93
2022-12-24T15:45:28.755Z,4.32
2022-12-24T15:47:59.275Z,4.90
2022-12-24T15:50:30.795Z,3.88
2022-12-24T15:53:19.649Z,3.17
2022-12-24T15:56:06.996Z,3.35
2022-12-24T15:58:36.768Z,4.03
2022-12-24T16:01:09.868Z,3.13
2022-12-24T16:03:40.115Z,2.67
2022-12-24T16:06:11.693Z,2.05
2022-12-24T16:08:40.332Z,2.83
2022-12-24T16:11:25.148Z,3.40
2022-12-24T16:13:57.670Z,3.45
2022-12-24T16:16:34.511Z,5.35
2022-12-24T16:19:44.047Z,2.17
2022-12-24T16:22:31.386Z,2.40
2022-12-24T16:25:27.629Z,2.55
2022-12-24T16:27:57.320Z,1.95
2022-12-24T16:30:26.904Z,1.95
2022-12-24T16:32:53.614Z,1.90
2022-12-24T16:39:23.485Z,2.47
2022-12-24T16:42:13.504Z,2.63
2022-12-24T16:44:53.561Z,3.25
2022-12-24T16:47:24.151Z,3.38
2022-12-24T16:50:16.157Z,3.85
2022-12-24T16:52:42.929Z,3.25
2022-12-24T16:55:13.785Z,4.07
2022-12-24T16:57:41.980Z,3.63
2022-12-24T17:00:15.506Z,2.40
2022-12-24T17:02:42.846Z,3.28
2022-12-24T17:05:10.238Z,4.90
2022-12-24T17:07:53.163Z,4.85
2022-12-24T17:10:20.095Z,4.20
2022-12-24T17:12:46.837Z,5.75
2022-12-24T17:15:13.680Z,4.18
2022-12-24T17:17:46.156Z,4.78
2022-12-24T17:20:14.072Z,2.13
2022-12-24T17:22:42.332Z,2.97
2022-12-24T17:25:12.037Z,3.72
2022-12-24T17:27:41.668Z,2.40
2022-12-24T17:30:08.923Z,2.83
2022-12-24T17:32:37.393Z,2.13
2022-12-24T17:35:04.382Z,2.10
2022-12-24T17:37:31.017Z,3.40
2022-12-24T17:39:57.751Z,2.97
2022-12-24T17:42:43.658Z,3.33
2022-12-24T17:45:10.623Z,3.28
2022-12-24T17:47:37.325Z,2.40
2022-12-24T17:50:04.403Z,3.75
2022-12-24T17:52:31.067Z,2.83
2022-12-24T17:55:00.693Z,1.90
2022-12-24T17:57:27.707Z,2.42
2022-12-24T17:59:54.723Z,2.15
2022-12-24T18:02:21.692Z,1.88
2022-12-24T18:04:48.696Z,1.35
2022-12-24T18:07:15.417Z,1.70
2022-12-24T18:09:46.236Z,1.65
2022-12-24T18:12:14.028Z,1.60
2022-12-24T18:14:40.807Z,3.42
2022-12-24T18:17:07.513Z,2.47
2022-12-24T18:19:34.165Z,1.70
2022-12-24T18:22:02.078Z,2.22
2022-12-24T18:24:53.600Z,3.35
2022-12-24T18:27:41.579Z,2.60
2022-12-24T18:30:09.492Z,2.67
2022-12-24T18:32:37.077Z,3.88
2022-12-24T18:35:20.646Z,2.28
2022-12-24T18:37:47.292Z,2.40
2022-12-24T18:40:13.978Z,1.67
2022-12-24T18:42:42.158Z,1.92
2022-12-24T18:45:09.371Z,2.25
2022-12-24T18:47:36.084Z,3.03
2022-12-24T18:50:59.608Z,2.53
2022-12-24T18:54:19.437Z,2.47
2022-12-24T19:00:36.389Z,1.67
2022-12-24T19:11:12.460Z,2.67
2022-12-24T19:13:40.284Z,3.65
2022-12-24T19:16:39.428Z,4.03
2022-12-24T19:19:08.519Z,3.33
2022-12-24T19:22:18.693Z,3.33
2022-12-24T19:29:05.316Z,2.35
2022-12-24T19:31:32.627Z,5.63
2022-12-24T19:42:10.845Z,3.53
2022-12-24T19:44:57.783Z,7.25
2022-12-24T19:47:45.076Z,6.68
2022-12-24T19:50:11.924Z,6.15
2022-12-24T19:52:45.615Z,5.60
2022-12-24T19:55:12.863Z,10.65
2022-12-24T20:01:23.183Z,6.10
2022-12-24T20:04:10.607Z,6.93
2022-12-24T20:07:00.534Z,5.50
2022-12-24T20:09:47.865Z,6.32
2022-12-24T20:12:14.491Z,6.68
2022-12-24T20:14:41.122Z,4.03
2022-12-24T20:17:11.287Z,6.53
2022-12-24T20:19:38.247Z,5.82
2022-12-24T20:22:04.868Z,6.70
2022-12-24T20:28:22.088Z,6.95
2022-12-24T20:31:29.240Z,5.13
2022-12-24T20:42:04.972Z,5.07
2022-12-24T20:48:12.157Z,3.97
2022-12-24T20:50:41.194Z,6.40
2022-12-24T20:53:07.853Z,5.72
2022-12-24T20:59:25.884Z,5.70
2022-12-24T21:01:53.495Z,6.60
2022-12-24T21:12:29.577Z,5.45
2022-12-24T21:14:56.341Z,5.03
2022-12-24T21:17:43.355Z,4.68
2022-12-24T21:20:31.310Z,4.95
2022-12-24T21:23:18.315Z,5.13
2022-12-24T21:26:05.834Z,4.90
2022-12-24T21:28:54.291Z,6.05
2022-12-24T21:36:19.445Z,5.43
2022-12-24T21:42:37.181Z,10.10
2022-12-24T21:45:06.011Z,7.07
2022-12-24T21:47:34.671Z,4.43
2022-12-24T21:50:19.728Z,3.40
2022-12-24T21:52:46.531Z,4.13
2022-12-24T21:55:13.214Z,3.28
2022-12-24T21:57:54.974Z,3.95
2022-12-24T22:00:21.790Z,3.70
2022-12-24T22:02:56.941Z,3.85
2022-12-24T22:09:23.498Z,4.75
2022-12-24T22:11:54.285Z,3.67
2022-12-24T22:25:53.428Z,2.95
2022-12-24T22:28:20.097Z,6.22
2022-12-24T22:39:34.282Z,9.68
2022-12-24T22:42:00.974Z,4.00
2022-12-24T22:45:26.301Z,3.28
2022-12-24T22:47:52.955Z,3.45
2022-12-24T22:50:19.627Z,3.83
2022-12-24T23:01:09.471Z,3.50
2022-12-24T23:03:37.621Z,3.10
2022-12-24T23:14:11.818Z,2.70
2022-12-24T23:16:38.583Z,3.20
2022-12-24T23:19:25.543Z,3.83
2022-12-24T23:22:12.481Z,3.75
2022-12-24T23:24:59.531Z,3.42
2022-12-24T23:27:46.472Z,4.68
2022-12-24T23:35:26.433Z,4.50
2022-12-24T23:49:24.406Z,4.18
2022-12-24T23:51:51.070Z,3.97
2022-12-24T23:54:17.751Z,3.70
2022-12-24T23:56:44.493Z,3.15
2022-12-24T23:59:11.152Z,3.78
